sensor_id;sensor_type;location;lat;lon;timestamp;P1;durP1;ratioP1;P2;durP2;ratioP2
26435;SDS011;15351;52.408;16.826;2023-12-07T00:01:12;115.10;;;61.50;;
26435;SDS011;15351;52.408;16.826;2023-12-07T00:03:39;118.90;;;62.90;;
26435;SDS011;15351;52.408;16.826;2023-12-07T00:06:07;114.20;;;62.10;;
26435;SDS011;15351;52.408;16.826;2023-12-07T00:08:34;115.40;;;61.90;;
26435;SDS011;15351;52.408;16.826;2023-12-07T00:11:03;114.20;;;62.70;;
26435;SDS011;15351;52.408;16.826;2023-12-07T00:13:30;116.90;;;61.50;;
26435;SDS011;15351;52.408;16.826;2023-12-07T00:15:57;118.00;;;63.10;;
26435;SDS011;15351;52.408;16.826;2023-12-07T00:18:23;113.50;;;61.40;;
26435;SDS011;15351;52.408;16.826;2023-12-07T00:20:50;118.00;;;61.90;;
26435;SDS011;15351;52.408;16.826;2023-12-07T00:23:17;117.80;;;63.00;;
26435;SDS011;15351;52.408;16.826;2023-12-07T00:25:44;113.40;;;61.50;;
26435;SDS011;15351;52.408;16.826;2023-12-07T00:28:13;112.30;;;59.70;;
26435;SDS011;15351;52.408;16.826;2023-12-07T00:30:40;118.50;;;61.80;;
26435;SDS011;15351;52.408;16.826;2023-12-07T00:33:08;113.70;;;59.20;;
26435;SDS011;15351;52.408;16.826;2023-12-07T00:35:36;111.30;;;60.30;;
26435;SDS011;15351;52.408;16.826;2023-12-07T00:38:04;113.10;;;60.40;;
26435;SDS011;15351;52.408;16.826;2023-12-07T00:40:32;112.50;;;60.40;;
26435;SDS011;15351;52.408;16.826;2023-12-07T00:43:03;113.80;;;61.50;;
26435;SDS011;15351;52.408;16.826;2023-12-07T00:45:30;112.80;;;60.30;;
26435;SDS011;15351;52.408;16.826;2023-12-07T00:47:58;118.10;;;61.10;;
26435;SDS011;15351;52.408;16.826;2023-12-07T00:50:25;114.70;;;60.30;;
26435;SDS011;15351;52.408;16.826;2023-12-07T00:52:52;111.30;;;59.50;;
26435;SDS011;15351;52.408;16.826;2023-12-07T00:55:19;113.40;;;59.80;;
26435;SDS011;15351;52.408;16.826;2023-12-07T00:57:46;112.90;;;60.70;;
26435;SDS011;15351;52.408;16.826;2023-12-07T01:00:13;109.10;;;60.10;;
26435;SDS011;15351;52.408;16.826;2023-12-07T01:02:41;108.40;;;60.00;;
26435;SDS011;15351;52.408;16.826;2023-12-07T01:05:08;109.70;;;60.50;;
26435;SDS011;15351;52.408;16.826;2023-12-07T01:07:36;108.90;;;59.80;;
26435;SDS011;15351;52.408;16.826;2023-12-07T01:10:02;109.90;;;59.30;;
26435;SDS011;15351;52.408;16.826;2023-12-07T01:12:30;111.30;;;60.00;;
26435;SDS011;15351;52.408;16.826;2023-12-07T01:14:58;111.30;;;59.40;;
26435;SDS011;15351;52.408;16.826;2023-12-07T01:17:25;111.40;;;59.50;;
26435;SDS011;15351;52.408;16.826;2023-12-07T01:19:52;110.70;;;59.60;;
26435;SDS011;15351;52.408;16.826;2023-12-07T01:22:19;110.10;;;58.50;;
26435;SDS011;15351;52.408;16.826;2023-12-07T01:24:47;109.50;;;58.50;;
26435;SDS011;15351;52.408;16.826;2023-12-07T01:27:15;105.30;;;58.30;;
26435;SDS011;15351;52.408;16.826;2023-12-07T01:29:42;107.60;;;60.20;;
26435;SDS011;15351;52.408;16.826;2023-12-07T01:32:09;106.80;;;59.20;;
26435;SDS011;15351;52.408;16.826;2023-12-07T01:34:36;112.50;;;60.70;;
26435;SDS011;15351;52.408;16.826;2023-12-07T01:37:03;109.30;;;59.90;;
26435;SDS011;15351;52.408;16.826;2023-12-07T01:39:31;111.60;;;58.50;;
26435;SDS011;15351;52.408;16.826;2023-12-07T01:41:58;110.10;;;56.90;;
26435;SDS011;15351;52.408;16.826;2023-12-07T01:44:25;107.90;;;57.20;;
26435;SDS011;15351;52.408;16.826;2023-12-07T01:46:54;102.80;;;54.90;;
26435;SDS011;15351;52.408;16.826;2023-12-07T01:49:21;103.20;;;54.20;;
26435;SDS011;15351;52.408;16.826;2023-12-07T01:51:52;109.80;;;55.60;;
26435;SDS011;15351;52.408;16.826;2023-12-07T01:54:19;108.60;;;55.80;;
26435;SDS011;15351;52.408;16.826;2023-12-07T01:56:47;109.90;;;53.30;;
26435;SDS011;15351;52.408;16.826;2023-12-07T01:59:14;98.80;;;55.80;;
26435;SDS011;15351;52.408;16.826;2023-12-07T02:01:42;98.30;;;57.30;;
26435;SDS011;15351;52.408;16.826;2023-12-07T02:04:10;103.00;;;58.20;;
26435;SDS011;15351;52.408;16.826;2023-12-07T02:06:39;106.10;;;57.90;;
26435;SDS011;15351;52.408;16.826;2023-12-07T02:09:06;100.80;;;53.30;;
26435;SDS011;15351;52.408;16.826;2023-12-07T02:11:35;103.80;;;53.60;;
26435;SDS011;15351;52.408;16.826;2023-12-07T02:14:02;104.80;;;52.80;;
26435;SDS011;15351;52.408;16.826;2023-12-07T02:16:30;105.80;;;51.90;;
26435;SDS011;15351;52.408;16.826;2023-12-07T02:22:13;99.70;;;57.50;;
26435;SDS011;15351;52.408;16.826;2023-12-07T02:24:47;101.00;;;58.50;;
26435;SDS011;15351;52.408;16.826;2023-12-07T02:27:39;102.10;;;53.20;;
26435;SDS011;15351;52.408;16.826;2023-12-07T02:30:08;102.50;;;53.10;;
26435;SDS011;15351;52.408;16.826;2023-12-07T02:32:38;101.60;;;53.60;;
26435;SDS011;15351;52.408;16.826;2023-12-07T02:35:06;101.80;;;57.20;;
26435;SDS011;15351;52.408;16.826;2023-12-07T02:37:41;98.30;;;56.30;;
26435;SDS011;15351;52.408;16.826;2023-12-07T02:40:11;103.20;;;57.80;;
26435;SDS011;15351;52.408;16.826;2023-12-07T02:42:41;102.10;;;52.10;;
26435;SDS011;15351;52.408;16.826;2023-12-07T02:45:10;104.90;;;52.70;;
26435;SDS011;15351;52.408;16.826;2023-12-07T02:47:38;105.20;;;53.40;;
26435;SDS011;15351;52.408;16.826;2023-12-07T02:50:06;104.60;;;53.40;;
26435;SDS011;15351;52.408;16.826;2023-12-07T02:52:34;99.40;;;55.90;;
26435;SDS011;15351;52.408;16.826;2023-12-07T02:55:01;101.80;;;57.00;;
26435;SDS011;15351;52.408;16.826;2023-12-07T02:57:30;100.60;;;53.00;;
26435;SDS011;15351;52.408;16.826;2023-12-07T02:59:57;103.50;;;53.70;;
26435;SDS011;15351;52.408;16.826;2023-12-07T03:02:24;102.50;;;54.40;;
26435;SDS011;15351;52.408;16.826;2023-12-07T03:04:52;105.90;;;53.50;;
26435;SDS011;15351;52.408;16.826;2023-12-07T03:07:19;100.60;;;51.60;;
26435;SDS011;15351;52.408;16.826;2023-12-07T03:09:46;101.10;;;57.20;;
26435;SDS011;15351;52.408;16.826;2023-12-07T03:12:13;100.80;;;57.40;;
26435;SDS011;15351;52.408;16.826;2023-12-07T03:14:39;102.90;;;55.80;;
26435;SDS011;15351;52.408;16.826;2023-12-07T03:17:06;104.10;;;54.50;;
26435;SDS011;15351;52.408;16.826;2023-12-07T03:19:37;105.80;;;53.20;;
26435;SDS011;15351;52.408;16.826;2023-12-07T03:22:05;103.40;;;53.20;;
26435;SDS011;15351;52.408;16.826;2023-12-07T03:24:36;101.10;;;52.70;;
26435;SDS011;15351;52.408;16.826;2023-12-07T03:27:04;99.00;;;56.40;;
26435;SDS011;15351;52.408;16.826;2023-12-07T03:29:32;102.20;;;57.50;;
26435;SDS011;15351;52.408;16.826;2023-12-07T03:31:59;104.80;;;53.90;;
26435;SDS011;15351;52.408;16.826;2023-12-07T03:34:27;104.70;;;53.50;;
26435;SDS011;15351;52.408;16.826;2023-12-07T03:36:54;103.10;;;53.70;;
26435;SDS011;15351;52.408;16.826;2023-12-07T03:39:21;102.90;;;53.40;;
26435;SDS011;15351;52.408;16.826;2023-12-07T03:41:53;98.50;;;56.50;;
26435;SDS011;15351;52.408;16.826;2023-12-07T03:44:20;98.70;;;56.50;;
26435;SDS011;15351;52.408;16.826;2023-12-07T03:46:46;99.40;;;57.80;;
26435;SDS011;15351;52.408;16.826;2023-12-07T03:49:13;109.20;;;54.00;;
26435;SDS011;15351;52.408;16.826;2023-12-07T03:51:40;104.50;;;53.40;;
26435;SDS011;15351;52.408;16.826;2023-12-07T03:54:07;104.10;;;52.80;;
26435;SDS011;15351;52.408;16.826;2023-12-07T03:56:34;99.30;;;55.80;;
26435;SDS011;15351;52.408;16.826;2023-12-07T03:59:01;95.60;;;56.20;;
26435;SDS011;15351;52.408;16.826;2023-12-07T04:01:28;101.30;;;58.30;;
26435;SDS011;15351;52.408;16.826;2023-12-07T04:03:56;101.80;;;55.50;;
26435;SDS011;15351;52.408;16.826;2023-12-07T04:06:27;102.00;;;53.90;;
26435;SDS011;15351;52.408;16.826;2023-12-07T04:08:54;101.30;;;54.00;;
26435;SDS011;15351;52.408;16.826;2023-12-07T04:11:21;101.70;;;52.80;;
26435;SDS011;15351;52.408;16.826;2023-12-07T04:13:50;105.20;;;52.60;;
26435;SDS011;15351;52.408;16.826;2023-12-07T04:16:17;98.80;;;55.30;;
26435;SDS011;15351;52.408;16.826;2023-12-07T04:18:44;101.20;;;56.80;;
26435;SDS011;15351;52.408;16.826;2023-12-07T04:21:10;99.40;;;57.30;;
26435;SDS011;15351;52.408;16.826;2023-12-07T04:23:37;105.70;;;54.60;;
26435;SDS011;15351;52.408;16.826;2023-12-07T04:26:04;103.80;;;52.70;;
26435;SDS011;15351;52.408;16.826;2023-12-07T04:28:32;102.90;;;51.90;;
26435;SDS011;15351;52.408;16.826;2023-12-07T04:31:00;103.80;;;53.00;;
26435;SDS011;15351;52.408;16.826;2023-12-07T04:33:27;103.30;;;52.70;;
26435;SDS011;15351;52.408;16.826;2023-12-07T04:35:54;103.30;;;57.70;;
26435;SDS011;15351;52.408;16.826;2023-12-07T04:38:22;100.80;;;57.00;;
26435;SDS011;15351;52.408;16.826;2023-12-07T04:40:49;101.70;;;53.10;;
26435;SDS011;15351;52.408;16.826;2023-12-07T04:43:16;108.10;;;55.10;;
26435;SDS011;15351;52.408;16.826;2023-12-07T04:45:43;102.30;;;55.10;;
26435;SDS011;15351;52.408;16.826;2023-12-07T04:48:12;105.50;;;53.70;;
26435;SDS011;15351;52.408;16.826;2023-12-07T04:50:38;97.50;;;51.80;;
26435;SDS011;15351;52.408;16.826;2023-12-07T04:53:05;94.40;;;51.50;;
26435;SDS011;15351;52.408;16.826;2023-12-07T04:55:32;96.10;;;52.40;;
26435;SDS011;15351;52.408;16.826;2023-12-07T04:57:59;97.30;;;53.00;;
26435;SDS011;15351;52.408;16.826;2023-12-07T05:00:26;101.60;;;55.60;;
26435;SDS011;15351;52.408;16.826;2023-12-07T05:02:56;101.70;;;57.00;;
26435;SDS011;15351;52.408;16.826;2023-12-07T05:05:23;100.60;;;56.90;;
26435;SDS011;15351;52.408;16.826;2023-12-07T05:07:50;101.40;;;53.60;;
26435;SDS011;15351;52.408;16.826;2023-12-07T05:10:18;100.90;;;53.30;;
26435;SDS011;15351;52.408;16.826;2023-12-07T05:12:45;100.20;;;53.90;;
26435;SDS011;15351;52.408;16.826;2023-12-07T05:15:13;100.00;;;53.40;;
26435;SDS011;15351;52.408;16.826;2023-12-07T05:17:40;93.90;;;55.00;;
26435;SDS011;15351;52.408;16.826;2023-12-07T05:20:07;99.30;;;57.70;;
26435;SDS011;15351;52.408;16.826;2023-12-07T05:22:35;104.70;;;60.10;;
26435;SDS011;15351;52.408;16.826;2023-12-07T05:25:03;100.20;;;52.70;;
26435;SDS011;15351;52.408;16.826;2023-12-07T05:27:31;105.70;;;52.90;;
26435;SDS011;15351;52.408;16.826;2023-12-07T05:29:57;105.50;;;54.50;;
26435;SDS011;15351;52.408;16.826;2023-12-07T05:32:24;106.10;;;56.10;;
26435;SDS011;15351;52.408;16.826;2023-12-07T05:34:51;97.60;;;56.70;;
26435;SDS011;15351;52.408;16.826;2023-12-07T05:37:17;102.60;;;58.50;;
26435;SDS011;15351;52.408;16.826;2023-12-07T05:39:44;99.30;;;58.10;;
26435;SDS011;15351;52.408;16.826;2023-12-07T05:42:12;106.10;;;57.00;;
26435;SDS011;15351;52.408;16.826;2023-12-07T05:44:39;104.80;;;54.10;;
26435;SDS011;15351;52.408;16.826;2023-12-07T05:47:05;103.50;;;54.00;;
26435;SDS011;15351;52.408;16.826;2023-12-07T05:49:32;107.00;;;55.20;;
26435;SDS011;15351;52.408;16.826;2023-12-07T05:51:59;102.20;;;56.10;;
26435;SDS011;15351;52.408;16.826;2023-12-07T05:54:26;96.80;;;56.50;;
26435;SDS011;15351;52.408;16.826;2023-12-07T05:56:53;98.90;;;57.00;;
26435;SDS011;15351;52.408;16.826;2023-12-07T05:59:19;104.30;;;54.90;;
26435;SDS011;15351;52.408;16.826;2023-12-07T06:01:46;103.20;;;53.80;;
26435;SDS011;15351;52.408;16.826;2023-12-07T06:04:13;101.60;;;53.20;;
26435;SDS011;15351;52.408;16.826;2023-12-07T06:06:42;105.60;;;54.10;;
26435;SDS011;15351;52.408;16.826;2023-12-07T06:09:09;96.40;;;56.60;;
26435;SDS011;15351;52.408;16.826;2023-12-07T06:11:37;99.60;;;57.30;;
26435;SDS011;15351;52.408;16.826;2023-12-07T06:14:03;104.40;;;59.10;;
26435;SDS011;15351;52.408;16.826;2023-12-07T06:16:33;107.80;;;55.30;;
26435;SDS011;15351;52.408;16.826;2023-12-07T06:19:03;106.80;;;54.20;;
26435;SDS011;15351;52.408;16.826;2023-12-07T06:21:31;103.70;;;53.70;;
26435;SDS011;15351;52.408;16.826;2023-12-07T06:23:59;106.00;;;55.00;;
26435;SDS011;15351;52.408;16.826;2023-12-07T06:26:26;100.90;;;57.90;;
26435;SDS011;15351;52.408;16.826;2023-12-07T06:28:53;101.80;;;58.70;;
26435;SDS011;15351;52.408;16.826;2023-12-07T06:31:21;101.70;;;59.50;;
26435;SDS011;15351;52.408;16.826;2023-12-07T06:33:48;109.00;;;57.60;;
26435;SDS011;15351;52.408;16.826;2023-12-07T06:36:18;107.10;;;55.30;;
26435;SDS011;15351;52.408;16.826;2023-12-07T06:38:49;106.80;;;54.90;;
26435;SDS011;15351;52.408;16.826;2023-12-07T06:41:16;101.80;;;54.40;;
26435;SDS011;15351;52.408;16.826;2023-12-07T06:43:43;102.20;;;59.00;;
26435;SDS011;15351;52.408;16.826;2023-12-07T06:46:12;104.70;;;59.00;;
26435;SDS011;15351;52.408;16.826;2023-12-07T06:48:40;104.60;;;54.90;;
26435;SDS011;15351;52.408;16.826;2023-12-07T06:51:07;108.40;;;57.90;;
26435;SDS011;15351;52.408;16.826;2023-12-07T06:53:34;112.70;;;58.30;;
26435;SDS011;15351;52.408;16.826;2023-12-07T06:56:01;108.90;;;58.00;;
26435;SDS011;15351;52.408;16.826;2023-12-07T06:58:28;107.90;;;55.10;;
26435;SDS011;15351;52.408;16.826;2023-12-07T07:00:55;104.00;;;54.20;;
26435;SDS011;15351;52.408;16.826;2023-12-07T07:03:22;103.40;;;55.60;;
26435;SDS011;15351;52.408;16.826;2023-12-07T07:05:50;104.80;;;57.90;;
26435;SDS011;15351;52.408;16.826;2023-12-07T07:08:17;110.30;;;60.40;;
26435;SDS011;15351;52.408;16.826;2023-12-07T07:10:44;104.90;;;58.80;;
26435;SDS011;15351;52.408;16.826;2023-12-07T07:13:13;105.00;;;54.60;;
26435;SDS011;15351;52.408;16.826;2023-12-07T07:15:52;104.40;;;55.20;;
26435;SDS011;15351;52.408;16.826;2023-12-07T07:22:18;110.10;;;56.40;;
26435;SDS011;15351;52.408;16.826;2023-12-07T07:24:58;117.70;;;70.30;;
26435;SDS011;15351;52.408;16.826;2023-12-07T07:27:33;111.70;;;66.50;;
26435;SDS011;15351;52.408;16.826;2023-12-07T07:30:17;113.40;;;61.90;;
26435;SDS011;15351;52.408;16.826;2023-12-07T07:32:52;114.10;;;59.00;;
26435;SDS011;15351;52.408;16.826;2023-12-07T07:35:35;107.60;;;57.00;;
26435;SDS011;15351;52.408;16.826;2023-12-07T07:38:09;111.00;;;55.40;;
26435;SDS011;15351;52.408;16.826;2023-12-07T07:43:33;225.10;;;130.90;;
26435;SDS011;15351;52.408;16.826;2023-12-07T07:46:06;195.80;;;119.00;;
26435;SDS011;15351;52.408;16.826;2023-12-07T07:48:34;170.30;;;94.40;;
26435;SDS011;15351;52.408;16.826;2023-12-07T07:51:02;129.40;;;67.40;;
26435;SDS011;15351;52.408;16.826;2023-12-07T07:53:29;125.50;;;63.30;;
26435;SDS011;15351;52.408;16.826;2023-12-07T07:56:00;119.00;;;60.50;;
26435;SDS011;15351;52.408;16.826;2023-12-07T07:58:27;108.60;;;60.40;;
26435;SDS011;15351;52.408;16.826;2023-12-07T08:00:53;110.10;;;61.60;;
26435;SDS011;15351;52.408;16.826;2023-12-07T08:03:20;113.10;;;63.50;;
26435;SDS011;15351;52.408;16.826;2023-12-07T08:05:47;113.80;;;57.60;;
26435;SDS011;15351;52.408;16.826;2023-12-07T08:08:14;115.80;;;59.80;;
26435;SDS011;15351;52.408;16.826;2023-12-07T08:10:41;111.30;;;58.20;;
26435;SDS011;15351;52.408;16.826;2023-12-07T08:13:08;115.50;;;58.80;;
26435;SDS011;15351;52.408;16.826;2023-12-07T08:15:35;110.70;;;62.00;;
26435;SDS011;15351;52.408;16.826;2023-12-07T08:18:02;110.40;;;65.40;;
26435;SDS011;15351;52.408;16.826;2023-12-07T08:20:30;116.70;;;67.10;;
26435;SDS011;15351;52.408;16.826;2023-12-07T08:22:57;117.70;;;60.80;;
26435;SDS011;15351;52.408;16.826;2023-12-07T08:25:26;119.60;;;59.30;;
26435;SDS011;15351;52.408;16.826;2023-12-07T08:27:53;121.20;;;60.00;;
26435;SDS011;15351;52.408;16.826;2023-12-07T08:30:20;121.90;;;59.90;;
26435;SDS011;15351;52.408;16.826;2023-12-07T08:32:48;113.00;;;63.20;;
26435;SDS011;15351;52.408;16.826;2023-12-07T08:35:15;115.30;;;64.90;;
26435;SDS011;15351;52.408;16.826;2023-12-07T08:37:42;118.50;;;64.70;;
26435;SDS011;15351;52.408;16.826;2023-12-07T08:40:09;118.60;;;60.70;;
26435;SDS011;15351;52.408;16.826;2023-12-07T08:42:38;115.10;;;59.90;;
26435;SDS011;15351;52.408;16.826;2023-12-07T08:45:06;116.70;;;61.10;;
26435;SDS011;15351;52.408;16.826;2023-12-07T08:47:33;115.10;;;58.90;;
26435;SDS011;15351;52.408;16.826;2023-12-07T08:50:01;109.00;;;63.00;;
26435;SDS011;15351;52.408;16.826;2023-12-07T08:52:29;111.00;;;64.60;;
26435;SDS011;15351;52.408;16.826;2023-12-07T08:54:56;113.50;;;65.10;;
26435;SDS011;15351;52.408;16.826;2023-12-07T08:57:23;118.80;;;64.90;;
26435;SDS011;15351;52.408;16.826;2023-12-07T08:59:50;121.30;;;62.70;;
26435;SDS011;15351;52.408;16.826;2023-12-07T09:02:17;120.00;;;61.10;;
26435;SDS011;15351;52.408;16.826;2023-12-07T09:04:45;116.20;;;60.10;;
26435;SDS011;15351;52.408;16.826;2023-12-07T09:07:12;115.10;;;65.00;;
26435;SDS011;15351;52.408;16.826;2023-12-07T09:09:42;117.90;;;65.80;;
26435;SDS011;15351;52.408;16.826;2023-12-07T09:12:14;120.70;;;65.80;;
26435;SDS011;15351;52.408;16.826;2023-12-07T09:14:42;124.80;;;64.80;;
26435;SDS011;15351;52.408;16.826;2023-12-07T09:25:00;116.50;;;66.30;;
26435;SDS011;15351;52.408;16.826;2023-12-07T09:27:27;121.70;;;68.40;;
26435;SDS011;15351;52.408;16.826;2023-12-07T09:33:09;121.10;;;66.40;;
26435;SDS011;15351;52.408;16.826;2023-12-07T09:35:36;125.60;;;66.60;;
26435;SDS011;15351;52.408;16.826;2023-12-07T09:38:06;124.90;;;64.30;;
26435;SDS011;15351;52.408;16.826;2023-12-07T09:40:33;124.90;;;63.60;;
26435;SDS011;15351;52.408;16.826;2023-12-07T09:43:05;144.00;;;70.80;;
26435;SDS011;15351;52.408;16.826;2023-12-07T09:45:34;150.60;;;83.00;;
26435;SDS011;15351;52.408;16.826;2023-12-07T09:48:01;128.50;;;70.90;;
26435;SDS011;15351;52.408;16.826;2023-12-07T09:50:30;122.80;;;69.00;;
26435;SDS011;15351;52.408;16.826;2023-12-07T09:52:58;123.30;;;62.00;;
26435;SDS011;15351;52.408;16.826;2023-12-07T09:55:25;125.80;;;62.90;;
26435;SDS011;15351;52.408;16.826;2023-12-07T09:57:53;120.80;;;62.00;;
26435;SDS011;15351;52.408;16.826;2023-12-07T10:00:23;118.30;;;65.60;;
26435;SDS011;15351;52.408;16.826;2023-12-07T10:02:51;126.30;;;69.20;;
26435;SDS011;15351;52.408;16.826;2023-12-07T10:08:51;126.90;;;64.70;;
26435;SDS011;15351;52.408;16.826;2023-12-07T10:15:23;127.80;;;64.20;;
26435;SDS011;15351;52.408;16.826;2023-12-07T10:17:53;135.70;;;65.90;;
26435;SDS011;15351;52.408;16.826;2023-12-07T10:24:24;123.40;;;70.50;;
26435;SDS011;15351;52.408;16.826;2023-12-07T10:27:00;135.20;;;69.30;;
26435;SDS011;15351;52.408;16.826;2023-12-07T10:29:35;125.90;;;65.40;;
26435;SDS011;15351;52.408;16.826;2023-12-07T10:32:54;134.30;;;68.40;;
26435;SDS011;15351;52.408;16.826;2023-12-07T10:35:23;131.80;;;66.90;;
26435;SDS011;15351;52.408;16.826;2023-12-07T10:38:02;128.70;;;72.50;;
26435;SDS011;15351;52.408;16.826;2023-12-07T10:43:33;133.60;;;77.00;;
26435;SDS011;15351;52.408;16.826;2023-12-07T10:46:51;139.50;;;71.90;;
26435;SDS011;15351;52.408;16.826;2023-12-07T10:49:34;139.70;;;71.20;;
26435;SDS011;15351;52.408;16.826;2023-12-07T10:52:32;136.70;;;71.00;;
26435;SDS011;15351;52.408;16.826;2023-12-07T10:55:06;131.90;;;71.30;;
26435;SDS011;15351;52.408;16.826;2023-12-07T10:57:48;135.30;;;69.90;;
26435;SDS011;15351;52.408;16.826;2023-12-07T11:00:24;131.20;;;73.20;;
26435;SDS011;15351;52.408;16.826;2023-12-07T11:02:56;130.90;;;74.00;;
26435;SDS011;15351;52.408;16.826;2023-12-07T11:05:54;130.70;;;73.80;;
26435;SDS011;15351;52.408;16.826;2023-12-07T11:08:35;135.50;;;69.80;;
26435;SDS011;15351;52.408;16.826;2023-12-07T11:12:09;141.20;;;73.90;;
26435;SDS011;15351;52.408;16.826;2023-12-07T11:14:46;133.20;;;69.40;;
26435;SDS011;15351;52.408;16.826;2023-12-07T11:17:26;140.70;;;72.80;;
26435;SDS011;15351;52.408;16.826;2023-12-07T11:20:32;138.70;;;69.80;;
26435;SDS011;15351;52.408;16.826;2023-12-07T11:23:36;130.00;;;72.60;;
26435;SDS011;15351;52.408;16.826;2023-12-07T11:26:13;132.30;;;73.70;;
26435;SDS011;15351;52.408;16.826;2023-12-07T11:29:11;130.40;;;74.80;;
26435;SDS011;15351;52.408;16.826;2023-12-07T11:31:57;137.90;;;70.30;;
26435;SDS011;15351;52.408;16.826;2023-12-07T11:39:26;139.20;;;73.60;;
26435;SDS011;15351;52.408;16.826;2023-12-07T11:51:04;140.20;;;77.90;;
26435;SDS011;15351;52.408;16.826;2023-12-07T11:54:27;146.80;;;76.80;;
26435;SDS011;15351;52.408;16.826;2023-12-07T11:57:22;142.20;;;72.80;;
26435;SDS011;15351;52.408;16.826;2023-12-07T12:00:09;143.50;;;73.40;;
26435;SDS011;15351;52.408;16.826;2023-12-07T12:05:51;141.80;;;79.00;;
26435;SDS011;15351;52.408;16.826;2023-12-07T12:08:21;142.80;;;79.30;;
26435;SDS011;15351;52.408;16.826;2023-12-07T12:10:50;153.20;;;81.30;;
26435;SDS011;15351;52.408;16.826;2023-12-07T12:13:36;151.40;;;78.80;;
26435;SDS011;15351;52.408;16.826;2023-12-07T12:19:55;147.80;;;75.30;;
26435;SDS011;15351;52.408;16.826;2023-12-07T12:22:41;147.60;;;77.40;;
26435;SDS011;15351;52.408;16.826;2023-12-07T12:25:40;143.60;;;81.60;;
26435;SDS011;15351;52.408;16.826;2023-12-07T12:28:07;144.80;;;84.00;;
26435;SDS011;15351;52.408;16.826;2023-12-07T12:33:41;153.90;;;80.70;;
26435;SDS011;15351;52.408;16.826;2023-12-07T12:36:10;162.20;;;86.90;;
26435;SDS011;15351;52.408;16.826;2023-12-07T12:38:54;149.10;;;79.10;;
26435;SDS011;15351;52.408;16.826;2023-12-07T12:41:29;143.50;;;79.50;;
26435;SDS011;15351;52.408;16.826;2023-12-07T12:44:26;143.50;;;81.40;;
26435;SDS011;15351;52.408;16.826;2023-12-07T12:47:09;146.80;;;81.40;;
26435;SDS011;15351;52.408;16.826;2023-12-07T12:52:24;151.90;;;78.90;;
26435;SDS011;15351;52.408;16.826;2023-12-07T12:54:59;149.80;;;79.20;;
26435;SDS011;15351;52.408;16.826;2023-12-07T12:58:27;146.50;;;78.70;;
26435;SDS011;15351;52.408;16.826;2023-12-07T13:01:27;151.30;;;77.80;;
26435;SDS011;15351;52.408;16.826;2023-12-07T13:04:02;151.10;;;79.90;;
26435;SDS011;15351;52.408;16.826;2023-12-07T13:06:32;147.20;;;79.40;;
26435;SDS011;15351;52.408;16.826;2023-12-07T13:09:03;147.60;;;77.90;;
26435;SDS011;15351;52.408;16.826;2023-12-07T13:11:31;142.40;;;81.60;;
26435;SDS011;15351;52.408;16.826;2023-12-07T13:13:58;152.80;;;85.70;;
26435;SDS011;15351;52.408;16.826;2023-12-07T13:16:32;155.40;;;89.10;;
26435;SDS011;15351;52.408;16.826;2023-12-07T13:19:05;162.90;;;87.70;;
26435;SDS011;15351;52.408;16.826;2023-12-07T13:22:28;162.30;;;87.50;;
26435;SDS011;15351;52.408;16.826;2023-12-07T13:25:03;153.60;;;82.20;;
26435;SDS011;15351;52.408;16.826;2023-12-07T13:27:34;171.80;;;91.60;;
26435;SDS011;15351;52.408;16.826;2023-12-07T13:30:05;168.00;;;89.20;;
26435;SDS011;15351;52.408;16.826;2023-12-07T13:32:42;164.00;;;85.30;;
26435;SDS011;15351;52.408;16.826;2023-12-07T13:35:22;152.10;;;80.30;;
26435;SDS011;15351;52.408;16.826;2023-12-07T13:38:20;149.30;;;77.30;;
26435;SDS011;15351;52.408;16.826;2023-12-07T13:40:48;148.00;;;83.20;;
26435;SDS011;15351;52.408;16.826;2023-12-07T13:43:42;149.30;;;83.30;;
26435;SDS011;15351;52.408;16.826;2023-12-07T13:46:21;153.40;;;83.60;;
26435;SDS011;15351;52.408;16.826;2023-12-07T13:49:13;151.20;;;75.40;;
26435;SDS011;15351;52.408;16.826;2023-12-07T13:52:16;151.00;;;76.80;;
26435;SDS011;15351;52.408;16.826;2023-12-07T13:54:44;145.30;;;75.80;;
26435;SDS011;15351;52.408;16.826;2023-12-07T13:57:21;138.10;;;79.10;;
26435;SDS011;15351;52.408;16.826;2023-12-07T14:00:23;143.30;;;81.30;;
26435;SDS011;15351;52.408;16.826;2023-12-07T14:06:43;150.20;;;77.00;;
26435;SDS011;15351;52.408;16.826;2023-12-07T14:12:12;151.90;;;73.40;;
26435;SDS011;15351;52.408;16.826;2023-12-07T14:14:45;146.40;;;80.70;;
26435;SDS011;15351;52.408;16.826;2023-12-07T14:17:19;145.50;;;81.40;;
26435;SDS011;15351;52.408;16.826;2023-12-07T14:19:46;143.60;;;82.40;;
26435;SDS011;15351;52.408;16.826;2023-12-07T14:22:25;150.10;;;75.80;;
26435;SDS011;15351;52.408;16.826;2023-12-07T14:25:20;152.20;;;77.60;;
26435;SDS011;15351;52.408;16.826;2023-12-07T14:27:50;145.50;;;76.90;;
26435;SDS011;15351;52.408;16.826;2023-12-07T14:30:21;147.60;;;76.20;;
26435;SDS011;15351;52.408;16.826;2023-12-07T14:33:04;141.30;;;81.80;;
26435;SDS011;15351;52.408;16.826;2023-12-07T14:35:40;147.40;;;83.90;;
26435;SDS011;15351;52.408;16.826;2023-12-07T14:38:22;163.00;;;86.30;;
26435;SDS011;15351;52.408;16.826;2023-12-07T14:41:31;171.40;;;89.40;;
26435;SDS011;15351;52.408;16.826;2023-12-07T14:45:13;169.50;;;87.70;;
26435;SDS011;15351;52.408;16.826;2023-12-07T14:47:37;172.50;;;88.80;;
26435;SDS011;15351;52.408;16.826;2023-12-07T14:50:08;181.50;;;91.60;;
26435;SDS011;15351;52.408;16.826;2023-12-07T14:52:49;180.80;;;92.90;;
26435;SDS011;15351;52.408;16.826;2023-12-07T14:55:31;183.70;;;96.50;;
26435;SDS011;15351;52.408;16.826;2023-12-07T14:58:12;177.20;;;92.30;;
26435;SDS011;15351;52.408;16.826;2023-12-07T15:04:33;172.60;;;89.80;;
26435;SDS011;15351;52.408;16.826;2023-12-07T15:07:05;175.10;;;89.00;;
26435;SDS011;15351;52.408;16.826;2023-12-07T15:09:51;172.40;;;89.10;;
26435;SDS011;15351;52.408;16.826;2023-12-07T15:12:18;172.80;;;93.00;;
26435;SDS011;15351;52.408;16.826;2023-12-07T15:15:00;178.10;;;92.70;;
26435;SDS011;15351;52.408;16.826;2023-12-07T15:18:00;185.10;;;94.30;;
26435;SDS011;15351;52.408;16.826;2023-12-07T15:21:31;188.50;;;95.90;;
26435;SDS011;15351;52.408;16.826;2023-12-07T15:24:24;170.40;;;94.80;;
26435;SDS011;15351;52.408;16.826;2023-12-07T15:30:48;163.60;;;87.50;;
26435;SDS011;15351;52.408;16.826;2023-12-07T15:33:55;165.40;;;81.30;;
26435;SDS011;15351;52.408;16.826;2023-12-07T15:36:55;159.80;;;81.70;;
26435;SDS011;15351;52.408;16.826;2023-12-07T15:39:24;159.80;;;82.00;;
26435;SDS011;15351;52.408;16.826;2023-12-07T15:42:24;152.00;;;87.40;;
26435;SDS011;15351;52.408;16.826;2023-12-07T15:56:07;178.40;;;97.30;;
26435;SDS011;15351;52.408;16.826;2023-12-07T15:59:31;173.00;;;98.90;;